Time;durP1;ratioP1;P1;durP2;ratioP2;P2;SDS_P1;SDS_P2;PMS_P1;PMS_P2;Temp;Humidity;BMP_temperature;BMP_pressure;BME280_temperature;BME280_humidity;BME280_pressure;Samples;Min_cycle;Max_cycle;Signal;HPM_P1;HPM_P2
2024/02/29 00:00:06;;;;;;;30.85;25.08;;;;;;;4.24;76.18;98630.31;5032742;28;20038;-74
2024/02/29 00:02:32;;;;;;;27.27;22.27;;;;;;;4.10;75.57;98611.56;5032780;28;20055;-74
2024/02/29 00:04:58;;;;;;;30.20;24.95;;;;;;;4.06;75.85;98606.81;5034074;28;20404;-74
2024/02/29 00:07:23;;;;;;;26.10;22.45;;;;;;;3.97;75.91;98598.13;5034035;28;20036;-74
2024/02/29 00:09:48;;;;;;;25.90;22.02;;;;;;;3.96;75.58;98609.81;5016032;28;20041;-74
2024/02/29 00:12:14;;;;;;;28.92;23.15;;;;;;;3.97;75.68;98616.78;5016839;28;20029;-75
2024/02/29 00:14:39;;;;;;;29.13;23.98;;;;;;;3.87;75.88;98605.66;5016778;28;20063;-75
2024/02/29 00:17:05;;;;;;;30.95;24.85;;;;;;;3.77;75.63;98605.13;5016865;28;20076;-74
2024/02/29 00:19:32;;;;;;;31.20;26.33;;;;;;;3.73;76.27;98601.22;5016132;28;20044;-74
2024/02/29 00:21:57;;;;;;;33.15;27.63;;;;;;;3.73;76.56;98603.88;5017132;28;20100;-74
2024/02/29 00:24:22;;;;;;;29.88;25.65;;;;;;;3.70;76.36;98587.44;5016107;28;20481;-74
2024/02/29 00:26:48;;;;;;;31.92;26.27;;;;;;;3.59;76.84;98580.81;5033196;28;20079;-74
2024/02/29 00:29:14;;;;;;;29.65;25.25;;;;;;;3.57;75.93;98582.81;5032535;28;20037;-74
2024/02/29 00:31:43;;;;;;;29.33;25.50;;;;;;;3.64;76.61;98593.53;5032789;28;20030;-74
2024/02/29 00:34:09;;;;;;;33.50;26.13;;;;;;;3.67;77.35;98599.28;5032609;28;20465;-75
2024/02/29 00:36:35;;;;;;;30.65;24.67;;;;;;;3.55;78.37;98589.38;5007526;28;20061;-76
2024/02/29 00:39:00;;;;;;;33.47;26.13;;;;;;;3.54;78.82;98588.53;5010789;28;20041;-76
2024/02/29 00:41:25;;;;;;;32.45;27.25;;;;;;;3.56;78.69;98586.50;5000319;28;20110;-77
2024/02/29 00:43:51;;;;;;;29.98;25.60;;;;;;;3.37;79.36;98560.50;5034295;28;20041;-75
2024/02/29 00:46:16;;;;;;;31.98;26.60;;;;;;;3.44;78.93;98583.53;4998957;28;20064;-75
2024/02/29 00:48:42;;;;;;;30.90;25.70;;;;;;;3.45;79.17;98579.03;5032598;28;20061;-76
2024/02/29 00:51:07;;;;;;;32.05;26.80;;;;;;;3.57;79.27;98590.78;5015633;28;20029;-76
2024/02/29 00:53:32;;;;;;;30.35;25.52;;;;;;;3.63;79.36;98598.03;5014652;28;20554;-76
2024/02/29 00:55:58;;;;;;;31.17;25.65;;;;;;;3.59;79.06;98585.31;4994558;28;20025;-74
2024/02/29 00:58:23;;;;;;;34.22;26.30;;;;;;;3.60;78.77;98592.25;5032199;28;20033;-75
2024/02/29 01:00:49;;;;;;;32.15;26.27;;;;;;;3.49;79.05;98574.97;5032206;28;20025;-74
2024/02/29 01:03:14;;;;;;;32.13;28.52;;;;;;;3.48;79.09;98573.31;5015591;28;20075;-74
2024/02/29 01:05:39;;;;;;;30.90;25.80;;;;;;;3.56;78.68;98581.19;5004851;28;20088;-74
2024/02/29 01:08:05;;;;;;;33.95;27.42;;;;;;;3.42;78.14;98579.41;5031753;28;20132;-75
2024/02/29 01:10:31;;;;;;;32.67;26.38;;;;;;;3.34;78.43;98566.19;5031985;28;20075;-76
2024/02/29 01:12:56;;;;;;;34.92;27.95;;;;;;;3.31;77.47;98566.59;5033287;28;20029;-75
2024/02/29 01:15:22;;;;;;;36.70;28.88;;;;;;;3.40;77.40;98582.25;5032498;28;20096;-76
2024/02/29 01:17:47;;;;;;;30.30;25.00;;;;;;;3.23;77.04;98569.38;4999831;28;20033;-76
2024/02/29 01:20:13;;;;;;;31.92;25.80;;;;;;;3.26;77.61;98569.81;5034616;28;20101;-76
2024/02/29 01:22:38;;;;;;;28.95;24.13;;;;;;;3.15;77.62;98550.88;5035123;28;20160;-76
2024/02/29 01:25:04;;;;;;;29.45;24.92;;;;;;;3.23;77.34;98574.69;5032640;28;20029;-76
2024/02/29 01:27:30;;;;;;;28.90;24.77;;;;;;;3.12;77.16;98561.88;5015810;28;20462;-76
2024/02/29 01:29:55;;;;;;;29.77;25.27;;;;;;;3.06;77.21;98555.47;5032097;28;20018;-76
2024/02/29 01:32:21;;;;;;;26.70;23.67;;;;;;;2.97;77.53;98540.63;5007380;28;20025;-76
2024/02/29 01:34:47;;;;;;;31.20;25.67;;;;;;;3.00;77.30;98563.38;5013961;28;20060;-78
2024/02/29 01:37:12;;;;;;;34.42;28.00;;;;;;;2.71;77.78;98511.91;5016359;28;20562;-75
2024/02/29 01:39:38;;;;;;;32.08;26.35;;;;;;;2.88;77.30;98532.94;5032820;28;20033;-76
2024/02/29 01:42:03;;;;;;;33.05;26.88;;;;;;;2.85;77.82;98538.66;5031066;28;20103;-76
2024/02/29 01:44:28;;;;;;;35.13;28.83;;;;;;;2.91;78.46;98544.06;5031271;28;20060;-75
2024/02/29 01:46:54;;;;;;;35.92;30.25;;;;;;;2.85;79.08;98538.66;5014552;28;20477;-74
2024/02/29 01:49:20;;;;;;;37.28;29.33;;;;;;;2.86;79.64;98534.97;5030569;28;20034;-76
2024/02/29 01:51:46;;;;;;;34.17;28.48;;;;;;;2.79;79.43;98527.75;5031022;28;20045;-76
2024/02/29 01:54:11;;;;;;;35.05;28.00;;;;;;;2.78;79.50;98523.44;5031005;28;20017;-75
2024/02/29 01:56:37;;;;;;;35.83;29.55;;;;;;;2.93;79.52;98546.53;5030847;28;20128;-73
2024/02/29 01:59:04;;;;;;;34.70;27.70;;;;;;;2.92;79.75;98540.38;5013960;28;20030;-74
2024/02/29 02:01:30;;;;;;;35.20;27.48;;;;;;;2.84;79.77;98521.06;5030757;28;20041;-74
2024/02/29 02:03:55;;;;;;;34.85;28.50;;;;;;;2.82;79.94;98525.75;5030646;28;20033;-74
2024/02/29 02:06:21;;;;;;;36.47;28.75;;;;;;;2.93;80.16;98538.53;5030700;28;20560;-74
2024/02/29 02:08:46;;;;;;;29.77;26.55;;;;;;;2.72;79.38;98502.94;5030493;28;20024;-75
2024/02/29 02:11:11;;;;;;;37.47;29.58;;;;;;;2.84;79.83;98523.72;5010472;28;20050;-74
2024/02/29 02:13:38;;;;;;;50.03;34.35;;;;;;;2.85;79.18;98530.69;5028797;28;20017;-76
2024/02/29 02:16:04;;;;;;;33.55;27.63;;;;;;;2.62;79.30;98502.41;5014158;28;20081;-77
2024/02/29 02:18:29;;;;;;;33.65;27.67;;;;;;;2.74;78.71;98519.53;5014208;28;20060;-77
2024/02/29 02:20:55;;;;;;;29.38;25.52;;;;;;;2.62;79.00;98497.06;5013739;28;20044;-76
2024/02/29 02:23:21;;;;;;;30.95;24.50;;;;;;;2.70;79.16;98504.97;4997432;28;20059;-77
2024/02/29 02:25:46;;;;;;;33.47;28.00;;;;;;;2.71;79.22;98511.91;5013919;28;20040;-74
2024/02/29 02:28:12;;;;;;;32.72;26.40;;;;;;;2.46;78.99;98478.69;5030411;28;20025;-75
2024/02/29 02:30:38;;;;;;;35.40;28.27;;;;;;;2.59;78.67;98496.63;5030147;28;20060;-75
2024/02/29 02:33:04;;;;;;;33.55;27.52;;;;;;;2.66;78.21;98508.97;5030196;28;20151;-75
2024/02/29 02:35:29;;;;;;;34.22;27.00;;;;;;;2.57;78.59;98494.16;4997420;28;20478;-75
2024/02/29 02:37:54;;;;;;;47.92;33.00;;;;;;;2.58;77.75;98506.44;5031570;28;20033;-75
2024/02/29 02:40:20;;;;;;;40.88;31.85;;;;;;;2.41;77.87;98475.75;5013910;28;20199;-75
2024/02/29 02:42:45;;;;;;;37.80;28.73;;;;;;;2.38;78.29;98472.66;5030405;28;20025;-74
2024/02/29 02:45:11;;;;;;;33.80;26.83;;;;;;;2.39;77.82;98480.44;5013948;28;20037;-75
2024/02/29 02:47:36;;;;;;;33.88;27.52;;;;;;;2.45;77.91;98492.16;5031446;28;20096;-75
2024/02/29 02:50:01;;;;;;;49.78;35.25;;;;;;;2.43;77.60;98487.03;5013752;28;20037;-75
2024/02/29 02:52:27;;;;;;;40.80;32.03;;;;;;;2.31;78.60;98477.88;5030239;28;20056;-74
2024/02/29 02:54:52;;;;;;;40.38;31.60;;;;;;;2.28;78.75;98478.25;5004309;28;20144;-75
2024/02/29 02:57:18;;;;;;;35.83;28.38;;;;;;;2.38;78.28;98497.38;5030203;28;20032;-75
2024/02/29 02:59:43;;;;;;;36.28;29.02;;;;;;;2.29;79.25;98477.25;5013508;28;20505;-75
2024/02/29 03:02:08;;;;;;;36.47;29.08;;;;;;;2.33;78.78;98480.38;5013757;28;20041;-76
2024/02/29 03:04:34;;;;;;;38.67;30.77;;;;;;;2.36;79.38;98475.50;5030513;28;20025;-76
2024/02/29 03:06:59;;;;;;;31.38;25.52;;;;;;;2.41;79.49;98483.72;5030436;28;20051;-76
2024/02/29 03:09:24;;;;;;;36.28;29.10;;;;;;;2.49;79.77;98491.63;5032499;28;20036;-76
2024/02/29 03:11:50;;;;;;;36.78;29.50;;;;;;;2.46;79.65;98473.38;5034083;28;20481;-76
2024/02/29 03:14:15;;;;;;;37.58;29.70;;;;;;;2.58;79.89;98487.84;5026122;28;20037;-77
2024/02/29 03:16:41;;;;;;;35.30;28.73;;;;;;;2.48;80.00;98458.06;5017827;28;20029;-76
2024/02/29 03:19:07;;;;;;;41.45;32.22;;;;;;;2.61;80.09;98474.16;5033831;28;20037;-76
2024/02/29 03:21:32;;;;;;;40.60;31.75;;;;;;;2.72;80.53;98486.97;5017359;28;20388;-75
2024/02/29 03:23:58;;;;;;;40.58;31.27;;;;;;;2.59;79.96;98454.91;5018045;28;20099;-77
2024/02/29 03:26:24;;;;;;;39.40;31.42;;;;;;;2.79;80.18;98487.03;5019040;28;20030;-77
2024/02/29 03:28:49;;;;;;;45.00;33.15;;;;;;;2.83;80.95;98476.84;5034022;28;20684;-76
2024/02/29 03:31:14;;;;;;;43.33;33.10;;;;;;;2.82;80.17;98459.25;5033266;28;20029;-76
2024/02/29 03:33:40;;;;;;;38.00;30.33;;;;;;;2.94;80.30;98465.72;5017335;28;20128;-76
2024/02/29 03:36:06;;;;;;;38.15;30.40;;;;;;;2.87;80.66;98456.84;5014052;28;20022;-76
2024/02/29 03:38:32;;;;;;;42.05;31.80;;;;;;;2.89;80.75;98444.19;5033025;28;20033;-74
2024/02/29 03:40:57;;;;;;;44.55;35.08;;;;;;;3.03;81.57;98461.94;4996963;28;20604;-75
2024/02/29 03:43:23;;;;;;;37.42;29.77;;;;;;;3.08;81.05;98470.16;5014946;28;20125;-75
2024/02/29 03:45:48;;;;;;;37.72;31.27;;;;;;;3.09;81.03;98466.47;5033155;28;20511;-75
2024/02/29 03:48:13;;;;;;;46.53;35.22;;;;;;;3.04;80.91;98452.91;5033133;28;20507;-75
2024/02/29 03:50:39;;;;;;;46.25;34.92;;;;;;;3.04;81.64;98450.25;5032888;28;20033;-75
2024/02/29 03:53:04;;;;;;;40.30;31.17;;;;;;;2.99;81.38;98434.06;5013115;28;20515;-75
2024/02/29 03:55:30;;;;;;;38.60;31.08;;;;;;;3.10;81.68;98452.16;5016561;28;20029;-76
2024/02/29 03:57:55;;;;;;;41.15;32.58;;;;;;;3.07;81.38;98441.91;5008531;28;20040;-76
2024/02/29 04:00:21;;;;;;;39.95;30.95;;;;;;;3.23;81.67;98462.91;5016150;28;20060;-76
2024/02/29 04:02:46;;;;;;;41.10;31.33;;;;;;;3.10;81.68;98441.53;5078823;22;20037;-76
2024/02/29 04:05:12;;;;;;;45.33;34.33;;;;;;;2.99;82.08;98439.38;5033575;28;20292;-76
2024/02/29 04:07:40;;;;;;;40.13;31.67;;;;;;;3.13;82.14;98457.09;5017383;28;20164;-76
2024/02/29 04:10:06;;;;;;;38.85;30.50;;;;;;;3.12;82.03;98463.44;5036386;28;20468;-74
2024/02/29 04:12:31;;;;;;;40.65;32.63;;;;;;;3.20;82.16;98463.28;5045050;28;20048;-75
2024/02/29 04:14:57;;;;;;;44.28;32.47;;;;;;;3.15;81.70;98449.75;5052568;28;20006;-75
2024/02/29 04:17:23;;;;;;;43.80;34.17;;;;;;;3.17;81.81;98437.91;5016404;28;20139;-76
2024/02/29 04:19:49;;;;;;;40.83;31.35;;;;;;;3.14;82.29;98434.81;5017634;28;20370;-76
2024/02/29 04:22:14;;;;;;;39.42;30.80;;;;;;;3.13;82.43;98419.84;5033551;28;20040;-76
2024/02/29 04:24:40;;;;;;;48.35;35.13;;;;;;;3.26;82.75;98438.59;5016741;28;20396;-76
2024/02/29 04:27:05;;;;;;;49.50;36.28;;;;;;;2.97;83.62;98410.31;5016591;28;20036;-77
2024/02/29 04:29:30;;;;;;;43.85;33.40;;;;;;;3.16;83.50;98440.75;5016205;28;20492;-76
2024/02/29 04:31:56;;;;;;;39.55;30.45;;;;;;;3.24;83.04;98435.31;5016225;28;20048;-76
2024/02/29 04:34:21;;;;;;;44.72;32.50;;;;;;;3.20;82.62;98410.06;5015950;28;20018;-76
2024/02/29 04:36:47;;;;;;;41.70;32.72;;;;;;;3.21;82.76;98411.72;4996451;28;20048;-76
2024/02/29 04:39:13;;;;;;;46.42;35.45;;;;;;;3.31;82.96;98425.53;5029253;28;20033;-76
2024/02/29 04:41:38;;;;;;;40.78;32.75;;;;;;;3.43;83.12;98438.09;5016016;28;20075;-75
2024/02/29 04:44:04;;;;;;;44.80;34.22;;;;;;;3.37;83.40;98422.09;5015696;28;20079;-76
2024/02/29 04:46:29;;;;;;;42.22;32.83;;;;;;;3.37;83.25;98406.97;5014783;28;20473;-76
2024/02/29 04:48:54;;;;;;;45.13;34.15;;;;;;;3.33;83.30;98394.22;5015660;28;20510;-76
2024/02/29 04:51:20;;;;;;;44.58;34.70;;;;;;;3.59;82.61;98426.38;5015157;28;20033;-75
2024/02/29 04:53:45;;;;;;;43.40;33.08;;;;;;;3.62;83.17;98414.50;5032052;28;20101;-75
2024/02/29 04:56:10;;;;;;;47.25;36.10;;;;;;;3.50;83.48;98406.25;5015497;28;20041;-75
2024/02/29 04:58:36;;;;;;;40.25;32.03;;;;;;;3.43;83.94;98408.03;5032052;28;20109;-76
2024/02/29 05:01:01;;;;;;;47.50;34.90;;;;;;;3.48;83.65;98413.56;5031711;28;20069;-75
2024/02/29 05:03:27;;;;;;;45.97;35.45;;;;;;;3.59;82.85;98425.53;4998719;28;20712;-75
2024/02/29 05:05:52;;;;;;;42.75;32.47;;;;;;;3.45;83.18;98408.66;5032101;28;20405;-75
2024/02/29 05:08:18;;;;;;;41.25;31.77;;;;;;;3.52;83.07;98409.53;5032224;28;20029;-76
2024/02/29 05:10:43;;;;;;;39.55;32.75;;;;;;;3.61;83.36;98415.50;5016713;28;20386;-76
2024/02/29 05:13:09;;;;;;;45.67;35.35;;;;;;;3.51;83.78;98413.19;5264165;23;20045;-77
2024/02/29 05:15:35;;;;;;;46.95;35.17;;;;;;;3.63;83.79;98426.78;5030627;28;20033;-76
2024/02/29 05:18:02;;;;;;;44.85;34.47;;;;;;;3.55;83.17;98409.13;5016475;28;20021;-76
2024/02/29 05:20:28;;;;;;;44.38;33.22;;;;;;;3.43;82.69;98381.41;5034109;28;20444;-76
2024/02/29 05:22:54;;;;;;;197.50;153.13;;;;;;;3.54;83.50;98402.16;5016655;28;20120;-76
2024/02/29 05:25:20;;;;;;;97.90;78.03;;;;;;;3.40;83.90;98384.44;5032916;28;20041;-76
2024/02/29 05:27:46;;;;;;;50.28;40.13;;;;;;;3.35;83.91;98370.91;5016643;28;20532;-77
2024/02/29 05:30:11;;;;;;;44.75;35.17;;;;;;;3.68;83.89;98406.56;4995718;28;20064;-76
2024/02/29 05:32:37;;;;;;;46.45;37.47;;;;;;;3.72;83.57;98398.97;5029651;28;20493;-76
2024/02/29 05:35:03;;;;;;;44.70;34.10;;;;;;;3.71;83.85;98403.47;5033296;28;20068;-76
2024/02/29 05:37:29;;;;;;;43.90;35.20;;;;;;;3.75;83.65;98393.28;5031405;28;20079;-76
2024/02/29 05:39:58;;;;;;;51.53;39.33;;;;;;;3.44;83.72;98353.75;4998751;28;20457;-76
2024/02/29 05:42:26;;;;;;;43.42;33.22;;;;;;;3.55;83.29;98355.06;5013988;28;20025;-76
2024/02/29 05:44:52;;;;;;;42.78;33.15;;;;;;;3.78;83.29;98387.56;5012235;28;20394;-76
2024/02/29 05:47:17;;;;;;;40.67;33.45;;;;;;;3.76;83.41;98374.41;5011738;28;20017;-76
2024/02/29 05:49:42;;;;;;;46.63;36.80;;;;;;;3.82;83.51;98371.00;5030745;28;20033;-76
2024/02/29 05:52:08;;;;;;;41.70;34.20;;;;;;;3.84;83.54;98358.28;5030843;28;20029;-76
2024/02/29 05:54:33;;;;;;;44.35;34.38;;;;;;;3.79;83.31;98355.41;5030706;28;20496;-76
2024/02/29 05:56:59;;;;;;;41.13;33.10;;;;;;;3.87;83.34;98365.91;5032805;28;20031;-76
2024/02/29 05:59:24;;;;;;;38.83;32.03;;;;;;;3.92;83.00;98368.75;5014134;28;20087;-75
2024/02/29 06:01:50;;;;;;;38.05;32.67;;;;;;;3.97;83.78;98370.84;5013036;28;20455;-75
2024/02/29 06:04:16;;;;;;;38.72;31.60;;;;;;;4.03;83.13;98370.06;5014294;28;20034;-75
2024/02/29 06:06:42;;;;;;;41.88;32.10;;;;;;;4.06;83.11;98380.31;4997854;28;20025;-75
2024/02/29 06:09:07;;;;;;;52.38;37.08;;;;;;;3.96;83.60;98372.69;5014055;28;20087;-76
2024/02/29 06:11:32;;;;;;;44.15;36.92;;;;;;;3.89;83.44;98350.53;5030757;28;20060;-76
2024/02/29 06:13:59;;;;;;;50.58;40.35;;;;;;;4.09;83.23;98372.75;5030658;28;20087;-76
2024/02/29 06:16:26;;;;;;;48.47;38.50;;;;;;;3.94;83.15;98355.28;5030596;28;20036;-76
2024/02/29 06:18:52;;;;;;;51.10;37.70;;;;;;;3.97;83.50;98379.66;5031002;28;20038;-76
2024/02/29 06:21:17;;;;;;;57.47;40.20;;;;;;;3.74;83.50;98344.50;4997538;28;20033;-76
2024/02/29 06:23:42;;;;;;;43.85;35.10;;;;;;;3.94;83.47;98369.41;5014124;28;20039;-76
2024/02/29 06:26:08;;;;;;;48.42;35.83;;;;;;;3.94;83.05;98361.44;4997742;28;20504;-76
2024/02/29 06:28:33;;;;;;;45.53;37.58;;;;;;;3.92;83.76;98363.44;5014716;28;20408;-77
2024/02/29 06:30:58;;;;;;;50.30;38.17;;;;;;;4.00;83.00;98360.63;4998100;28;20108;-76
2024/02/29 06:33:25;;;;;;;50.20;38.88;;;;;;;4.07;83.43;98366.78;5014037;28;20409;-76
2024/02/29 06:35:51;;;;;;;47.40;37.40;;;;;;;4.10;83.63;98373.56;5030340;28;20108;-76
2024/02/29 06:38:16;;;;;;;46.38;36.20;;;;;;;4.09;83.92;98356.75;5030652;28;20056;-76
2024/02/29 06:40:42;;;;;;;43.35;33.75;;;;;;;4.19;83.58;98367.88;4997290;28;20022;-75
2024/02/29 06:43:07;;;;;;;39.70;30.63;;;;;;;4.19;82.92;98375.03;5013959;28;20374;-75
2024/02/29 06:45:33;;;;;;;41.33;33.42;;;;;;;4.18;83.36;98360.88;5016703;28;20106;-75
2024/02/29 06:47:58;;;;;;;44.83;33.72;;;;;;;4.38;83.59;98378.78;5034346;28;20033;-75
2024/02/29 06:50:24;;;;;;;45.63;34.67;;;;;;;4.44;83.98;98377.97;4992983;28;21259;-75
2024/02/29 06:52:49;;;;;;;44.65;34.85;;;;;;;4.47;83.14;98372.25;5035128;28;20095;-76
2024/02/29 06:55:14;;;;;;;42.38;32.85;;;;;;;4.38;83.68;98357.47;5017489;28;20112;-76
2024/02/29 06:57:40;;;;;;;46.00;34.05;;;;;;;4.32;83.68;98323.63;5013229;28;20478;-76
2024/02/29 07:00:06;;;;;;;39.10;30.75;;;;;;;4.49;83.53;98344.38;5013022;28;20025;-75
2024/02/29 07:02:32;;;;;;;43.50;33.22;;;;;;;4.48;83.41;98331.25;5033740;28;20045;-76
2024/02/29 07:04:58;;;;;;;41.35;33.03;;;;;;;4.66;83.67;98366.16;5017199;28;20018;-75
2024/02/29 07:07:25;;;;;;;38.22;32.95;;;;;;;4.62;83.62;98348.91;5033925;28;20091;-75
2024/02/29 07:09:52;;;;;;;40.35;32.45;;;;;;;4.61;84.14;98342.75;5034943;28;20024;-75
2024/02/29 07:12:18;;;;;;;44.25;36.63;;;;;;;4.65;84.19;98335.16;5033746;28;20092;-75
2024/02/29 07:14:43;;;;;;;45.45;40.42;;;;;;;4.68;84.15;98329.41;5017252;28;20033;-75
2024/02/29 07:17:09;;;;;;;45.53;37.78;;;;;;;4.86;83.94;98334.97;5033867;28;20535;-76
2024/02/29 07:19:34;;;;;;;48.65;35.78;;;;;;;4.87;83.83;98344.63;5033509;28;20032;-76
2024/02/29 07:22:00;;;;;;;41.97;33.38;;;;;;;4.78;83.50;98316.50;5033655;28;20037;-76
2024/02/29 07:24:26;;;;;;;47.08;36.20;;;;;;;4.89;83.77;98335.41;5000651;28;20018;-76
2024/02/29 07:26:53;;;;;;;42.42;34.33;;;;;;;4.80;83.98;98304.59;5033854;28;20037;-76
2024/02/29 07:29:19;;;;;;;44.88;34.88;;;;;;;4.97;83.78;98318.34;5033225;28;20035;-76
2024/02/29 07:31:45;;;;;;;41.58;34.47;;;;;;;5.00;83.28;98304.59;4998908;28;20603;-76
2024/02/29 07:34:10;;;;;;;41.22;33.92;;;;;;;5.20;84.06;98332.09;5033464;28;20108;-75
2024/02/29 07:36:37;;;;;;;45.97;37.97;;;;;;;5.30;83.37;98332.47;5033345;28;20145;-76
2024/02/29 07:39:03;;;;;;;48.03;39.33;;;;;;;5.10;83.13;98283.66;5033165;28;20080;-76
2024/02/29 07:41:28;;;;;;;52.10;40.33;;;;;;;5.38;83.42;98318.94;5016945;28;20041;-76
2024/02/29 07:43:54;;;;;;;64.65;53.60;;;;;;;5.42;83.03;98304.13;5034726;28;20064;-76
2024/02/29 07:46:19;;;;;;;81.70;67.22;;;;;;;5.58;82.76;98317.03;5000464;28;20473;-75
2024/02/29 07:48:44;;;;;;;56.67;46.83;;;;;;;5.57;82.99;98296.69;5016193;28;20057;-76
2024/02/29 07:51:10;;;;;;;46.35;38.72;;;;;;;5.76;82.50;98315.53;5032964;28;20032;-76
2024/02/29 07:53:35;;;;;;;49.83;42.00;;;;;;;5.90;81.61;98327.88;5016698;28;20456;-76
2024/02/29 07:56:04;;;;;;;49.17;42.38;;;;;;;5.75;82.30;98297.84;5032932;28;20037;-76
2024/02/29 07:58:30;;;;;;;47.58;40.05;;;;;;;5.93;81.85;98319.41;4994359;28;20036;-77
2024/02/29 08:00:56;;;;;;;45.35;37.40;;;;;;;5.96;81.47;98308.28;5032932;28;20037;-75
2024/02/29 08:03:21;;;;;;;44.65;37.15;;;;;;;6.06;81.16;98311.34;5009942;28;20472;-77
2024/02/29 08:05:47;;;;;;;86.30;60.25;;;;;;;6.16;81.24;98311.72;5016951;28;20033;-77
2024/02/29 08:08:12;;;;;;;54.45;42.10;;;;;;;6.24;81.68;98324.81;5033227;28;20485;-77
2024/02/29 08:10:39;;;;;;;34.42;30.33;;;;;;;6.15;80.87;98305.53;5032662;28;20516;-77
2024/02/29 08:13:04;;;;;;;34.90;30.00;;;;;;;6.28;81.00;98312.66;5032474;28;20034;-77
2024/02/29 08:15:29;;;;;;;39.20;30.05;;;;;;;6.42;80.95;98324.91;5033686;28;20489;-76
2024/02/29 08:17:55;;;;;;;34.33;29.83;;;;;;;6.47;79.00;98310.91;5015500;28;20489;-77
2024/02/29 08:20:23;;;;;;;34.55;29.35;;;;;;;6.51;79.75;98318.28;5016711;28;20037;-76
2024/02/29 08:22:53;;;;;;;33.22;27.48;;;;;;;6.54;78.96;98314.34;4999963;28;20546;-76
2024/02/29 08:25:21;;;;;;;32.42;27.27;;;;;;;6.61;79.20;98309.78;5016862;28;20135;-76
2024/02/29 08:27:46;;;;;;;35.67;27.98;;;;;;;6.70;79.21;98298.59;5015625;28;20029;-77
2024/02/29 08:30:12;;;;;;;30.08;25.80;;;;;;;6.62;78.76;98288.19;5032387;28;20040;-77
2024/02/29 08:32:38;;;;;;;31.42;26.35;;;;;;;6.75;78.00;98288.06;5016153;28;20030;-77
2024/02/29 08:35:04;;;;;;;34.97;27.58;;;;;;;6.83;77.78;98284.31;5032514;28;20033;-76
2024/02/29 08:37:29;;;;;;;30.02;25.88;;;;;;;6.93;77.47;98293.47;5015780;28;20127;-77
2024/02/29 08:39:55;;;;;;;32.38;26.23;;;;;;;6.98;76.82;98296.31;5012297;28;20047;-77
2024/02/29 08:42:20;;;;;;;33.08;27.33;;;;;;;6.98;76.08;98279.44;5028415;28;20118;-77
2024/02/29 08:44:47;;;;;;;32.00;26.55;;;;;;;7.16;75.12;98302.75;5032224;28;20033;-77
2024/02/29 08:47:12;;;;;;;32.75;27.67;;;;;;;7.16;75.76;98295.56;5014775;28;20030;-76
2024/02/29 08:49:38;;;;;;;30.75;25.50;;;;;;;7.01;75.33;98272.81;5031741;28;20037;-76
2024/02/29 08:52:04;;;;;;;31.48;25.75;;;;;;;7.01;74.49;98262.09;5032076;28;20025;-76
2024/02/29 08:54:30;;;;;;;33.03;27.50;;;;;;;7.12;74.31;98274.78;5031981;28;20493;-77
2024/02/29 08:56:56;;;;;;;32.30;27.45;;;;;;;7.26;74.06;98281.66;5032305;28;20029;-76
2024/02/29 08:59:21;;;;;;;31.40;26.08;;;;;;;7.23;73.52;98261.50;5013149;28;20922;-75
2024/02/29 09:01:47;;;;;;;34.42;26.17;;;;;;;7.27;73.22;98272.56;5033336;28;20025;-77
2024/02/29 09:04:12;;;;;;;32.88;26.02;;;;;;;7.29;73.43;98254.41;5012005;28;20121;-76
2024/02/29 09:06:37;;;;;;;32.95;26.58;;;;;;;7.20;74.42;98255.75;5013902;28;20576;-76
2024/02/29 09:09:03;;;;;;;33.33;25.70;;;;;;;7.35;72.54;98261.59;5031475;28;20033;-76
2024/02/29 09:11:29;;;;;;;32.53;25.88;;;;;;;7.43;73.02;98272.00;5015189;28;20446;-76
2024/02/29 09:13:56;;;;;;;32.35;25.77;;;;;;;7.41;73.04;98264.19;5031542;28;20107;-75
2024/02/29 09:16:22;;;;;;;29.90;25.05;;;;;;;7.44;73.39;98268.28;5014258;28;20039;-76
2024/02/29 09:18:48;;;;;;;33.13;25.63;;;;;;;7.37;72.36;98235.38;5013223;28;20404;-76
2024/02/29 09:21:15;;;;;;;32.85;26.23;;;;;;;7.50;73.03;98251.31;5029737;28;20018;-76
2024/02/29 09:23:40;;;;;;;32.22;26.00;;;;;;;7.52;72.94;98251.91;5023002;28;20045;-76
2024/02/29 09:26:05;;;;;;;36.00;27.55;;;;;;;7.39;72.48;98241.34;5014290;28;20064;-76
2024/02/29 09:28:31;;;;;;;34.22;27.05;;;;;;;7.53;72.47;98250.88;5030661;28;20072;-76
2024/02/29 09:30:56;;;;;;;33.78;26.33;;;;;;;7.57;71.88;98260.09;4997942;28;20064;-76
2024/02/29 09:33:23;;;;;;;31.90;25.42;;;;;;;7.50;72.97;98243.25;5014880;28;20025;-76
2024/02/29 09:35:54;;;;;;;34.42;27.13;;;;;;;7.54;72.41;98231.03;5031267;28;20025;-76
2024/02/29 09:38:20;;;;;;;33.80;28.13;;;;;;;7.51;71.45;98226.16;5031377;28;20044;-77
2024/02/29 09:40:45;;;;;;;35.53;27.98;;;;;;;7.56;72.14;98234.34;5032104;28;20025;-76
2024/02/29 09:43:11;;;;;;;40.47;27.05;;;;;;;7.71;71.95;98242.81;5014563;28;20049;-77
2024/02/29 09:45:37;;;;;;;34.70;26.75;;;;;;;7.75;71.10;98238.63;5031109;28;20018;-76
2024/02/29 09:48:05;;;;;;;32.83;26.23;;;;;;;7.78;71.31;98243.53;5031347;28;20052;-76
2024/02/29 09:50:30;;;;;;;30.85;25.50;;;;;;;7.58;71.92;98205.47;5031633;28;20060;-77
2024/02/29 09:52:56;;;;;;;32.47;26.77;;;;;;;7.73;71.66;98229.16;5031125;28;20092;-76
2024/02/29 09:55:22;;;;;;;32.10;25.52;;;;;;;7.84;71.30;98245.31;5030867;28;20078;-76
2024/02/29 09:57:47;;;;;;;32.22;26.30;;;;;;;7.88;71.16;98238.47;5031101;28;20055;-77
2024/02/29 10:00:13;;;;;;;30.00;24.58;;;;;;;7.75;70.80;98225.22;5014176;28;20481;-77
2024/02/29 10:02:40;;;;;;;32.65;25.33;;;;;;;7.88;70.21;98227.75;5006144;28;20033;-77
2024/02/29 10:05:09;;;;;;;30.90;25.67;;;;;;;7.71;69.89;98194.56;5014450;28;20485;-77
2024/02/29 10:07:41;;;;;;;33.10;25.45;;;;;;;7.93;70.28;98214.50;5031000;28;20040;-76
2024/02/29 10:10:09;;;;;;;30.80;24.40;;;;;;;7.97;70.37;98209.47;5030887;28;20041;-77
2024/02/29 10:12:34;;;;;;;31.17;24.98;;;;;;;7.92;70.58;98207.47;5014211;28;20087;-77
2024/02/29 10:15:00;;;;;;;30.52;24.50;;;;;;;8.00;70.72;98204.50;5032162;28;20038;-75
2024/02/29 10:17:25;;;;;;;32.63;24.75;;;;;;;8.05;71.35;98223.38;4996305;28;20026;-77
2024/02/29 10:19:52;;;;;;;31.75;25.70;;;;;;;7.95;71.39;98198.16;5009654;28;20034;-77
2024/02/29 10:22:21;;;;;;;30.85;24.95;;;;;;;7.96;70.48;98192.56;5014363;28;20029;-77
2024/02/29 10:24:54;;;;;;;32.45;24.98;;;;;;;8.05;70.20;98196.56;5010919;28;20038;-77
2024/02/29 10:27:20;;;;;;;31.27;25.35;;;;;;;8.09;69.95;98195.06;5011861;28;20131;-76
2024/02/29 10:29:48;;;;;;;30.25;24.13;;;;;;;8.25;70.41;98209.69;5030169;28;20025;-76
2024/02/29 10:32:15;;;;;;;32.08;25.10;;;;;;;8.18;70.65;98196.38;5030636;28;20099;-76
2024/02/29 10:34:40;;;;;;;28.05;22.77;;;;;;;8.24;69.75;98184.72;5030608;28;20013;-77
2024/02/29 10:37:06;;;;;;;30.15;23.05;;;;;;;8.11;70.16;98166.16;5030941;28;20041;-77
2024/02/29 10:39:32;;;;;;;29.30;23.15;;;;;;;8.31;70.11;98190.84;5030135;28;20029;-77
2024/02/29 10:41:59;;;;;;;26.88;21.88;;;;;;;8.34;69.39;98179.66;5014705;28;20033;-77
2024/02/29 10:44:28;;;;;;;29.50;22.02;;;;;;;8.34;68.42;98179.66;5008755;28;20060;-77
2024/02/29 10:46:55;;;;;;;28.25;23.05;;;;;;;8.25;68.74;98164.91;5011060;28;20062;-76
2024/02/29 10:49:33;;;;;;;26.08;21.13;;;;;;;8.41;68.27;98176.03;5013594;28;20075;-76
2024/02/29 10:52:07;;;;;;;25.10;21.00;;;;;;;8.38;69.27;98168.47;5014178;28;20037;-77
2024/02/29 10:54:43;;;;;;;25.70;20.27;;;;;;;8.38;68.63;98155.06;5031629;28;20041;-76
2024/02/29 10:57:14;;;;;;;27.40;21.90;;;;;;;8.46;68.56;98147.47;5011653;28;20034;-76
2024/02/29 10:59:41;;;;;;;26.08;22.20;;;;;;;8.45;69.20;98118.19;5013959;28;20030;-76
2024/02/29 11:02:07;;;;;;;27.23;21.77;;;;;;;8.60;68.36;98132.78;5014212;28;20033;-76
2024/02/29 11:04:32;;;;;;;25.23;20.85;;;;;;;8.70;68.16;98145.63;5013048;28;20459;-76
2024/02/29 11:06:58;;;;;;;36.17;22.17;;;;;;;8.67;67.59;98129.97;5014170;28;20147;-76
2024/02/29 11:09:25;;;;;;;29.30;23.50;;;;;;;8.77;67.24;98139.09;5013655;28;20035;-77
2024/02/29 11:12:09;;;;;;;29.05;23.05;;;;;;;8.75;66.47;98132.31;5047046;28;20528;-77
2024/02/29 11:14:36;;;;;;;26.83;21.60;;;;;;;8.76;66.50;98129.38;5030134;28;20490;-77
2024/02/29 11:17:04;;;;;;;28.80;21.45;;;;;;;8.70;66.66;98108.03;5010708;28;20034;-76